sensor_id;sensor_type;location;lat;lon;timestamp;pressure;altitude;pressure_sealevel;temperature;humidity
58761;BME280;44529;47.464;19.014;2023-03-31T00:01:37;99865.97;;;10.44;100.00
58761;BME280;44529;47.464;19.014;2023-03-31T00:04:45;99864.06;;;10.44;100.00
58761;BME280;44529;47.464;19.014;2023-03-31T00:07:54;99860.56;;;10.44;100.00
58761;BME280;44529;47.464;19.014;2023-03-31T00:11:04;99857.22;;;10.38;100.00
58761;BME280;44529;47.464;19.014;2023-03-31T00:14:08;99856.44;;;10.38;100.00
58761;BME280;44529;47.464;19.014;2023-03-31T00:17:11;99863.25;;;10.35;100.00
58761;BME280;44529;47.464;19.014;2023-03-31T00:20:13;99861.34;;;10.36;100.00
58761;BME280;44529;47.464;19.014;2023-03-31T00:23:17;99854.22;;;10.31;100.00
58761;BME280;44529;47.464;19.014;2023-03-31T00:26:19;99859.59;;;10.40;100.00
58761;BME280;44529;47.464;19.014;2023-03-31T00:29:24;99853.75;;;10.38;100.00
58761;BME280;44529;47.464;19.014;2023-03-31T00:32:27;99858.00;;;10.30;100.00
58761;BME280;44529;47.464;19.014;2023-03-31T00:35:29;99848.97;;;10.26;100.00
58761;BME280;44529;47.464;19.014;2023-03-31T00:38:33;99837.97;;;10.22;100.00
58761;BME280;44529;47.464;19.014;2023-03-31T00:41:37;99844.62;;;10.16;100.00
58761;BME280;44529;47.464;19.014;2023-03-31T00:48:20;99832.72;;;10.17;100.00
58761;BME280;44529;47.464;19.014;2023-03-31T00:51:25;99830.50;;;10.02;100.00
58761;BME280;44529;47.464;19.014;2023-03-31T00:54:30;99837.34;;;9.99;100.00
58761;BME280;44529;47.464;19.014;2023-03-31T00:57:37;99833.06;;;9.98;100.00
58761;BME280;44529;47.464;19.014;2023-03-31T01:00:41;99835.25;;;9.96;100.00
58761;BME280;44529;47.464;19.014;2023-03-31T01:03:44;99834.31;;;10.01;100.00
58761;BME280;44529;47.464;19.014;2023-03-31T01:06:57;99834.78;;;10.03;100.00
58761;BME280;44529;47.464;19.014;2023-03-31T01:10:02;99824.78;;;9.95;100.00
58761;BME280;44529;47.464;19.014;2023-03-31T01:13:10;99830.50;;;10.02;100.00
58761;BME280;44529;47.464;19.014;2023-03-31T01:16:13;99824.63;;;10.00;100.00
58761;BME280;44529;47.464;19.014;2023-03-31T01:19:29;99818.44;;;9.99;100.00
58761;BME280;44529;47.464;19.014;2023-03-31T01:23:58;99820.50;;;10.02;100.00
58761;BME280;44529;47.464;19.014;2023-03-31T01:46:40;99821.13;;;10.17;100.00
58761;BME280;44529;47.464;19.014;2023-03-31T01:49:59;99817.47;;;10.13;100.00
58761;BME280;44529;47.464;19.014;2023-03-31T01:53:05;99821.75;;;10.22;100.00
58761;BME280;44529;47.464;19.014;2023-03-31T01:56:29;99814.78;;;10.30;100.00
58761;BME280;44529;47.464;19.014;2023-03-31T01:59:42;99821.78;;;10.40;100.00
58761;BME280;44529;47.464;19.014;2023-03-31T02:02:56;99827.50;;;10.29;100.00
58761;BME280;44529;47.464;19.014;2023-03-31T02:06:15;99816.06;;;10.33;100.00
58761;BME280;44529;47.464;19.014;2023-03-31T02:09:22;99819.38;;;10.29;100.00
58761;BME280;44529;47.464;19.014;2023-03-31T02:12:27;99811.75;;;10.23;100.00
58761;BME280;44529;47.464;19.014;2023-03-31T02:15:36;99815.88;;;10.20;100.00
58761;BME280;44529;47.464;19.014;2023-03-31T02:18:43;99819.56;;;10.24;100.00
58761;BME280;44529;47.464;19.014;2023-03-31T02:21:48;99823.06;;;10.25;100.00
58761;BME280;44529;47.464;19.014;2023-03-31T02:24:51;99817.97;;;10.32;100.00
58761;BME280;44529;47.464;19.014;2023-03-31T02:27:59;99817.47;;;10.30;100.00
58761;BME280;44529;47.464;19.014;2023-03-31T02:34:07;99804.44;;;10.23;100.00
58761;BME280;44529;47.464;19.014;2023-03-31T02:37:09;99815.09;;;10.20;100.00
58761;BME280;44529;47.464;19.014;2023-03-31T02:40:19;99800.78;;;10.11;100.00
58761;BME280;44529;47.464;19.014;2023-03-31T02:43:22;99799.84;;;10.07;100.00
58761;BME280;44529;47.464;19.014;2023-03-31T02:46:25;99795.06;;;10.03;100.00
58761;BME280;44529;47.464;19.014;2023-03-31T02:49:28;99785.06;;;9.95;100.00
58761;BME280;44529;47.464;19.014;2023-03-31T02:52:38;99802.37;;;10.03;100.00
58761;BME280;44529;47.464;19.014;2023-03-31T03:03:13;99783.94;;;9.96;100.00
58761;BME280;44529;47.464;19.014;2023-03-31T03:09:59;99793.78;;;9.84;100.00
58761;BME280;44529;47.464;19.014;2023-03-31T03:16:36;99790.16;;;9.80;100.00
58761;BME280;44529;47.464;19.014;2023-03-31T03:19:41;99789.69;;;9.86;100.00
58761;BME280;44529;47.464;19.014;2023-03-31T03:22:44;99791.25;;;9.96;99.91
58761;BME280;44529;47.464;19.014;2023-03-31T03:25:46;99781.75;;;9.98;100.00
58761;BME280;44529;47.464;19.014;2023-03-31T03:28:49;99789.19;;;10.01;99.48
58761;BME280;44529;47.464;19.014;2023-03-31T03:31:53;99791.25;;;10.04;98.85
58761;BME280;44529;47.464;19.014;2023-03-31T03:34:55;99788.53;;;10.04;98.79
58761;BME280;44529;47.464;19.014;2023-03-31T03:37:58;99787.28;;;10.02;99.85
58761;BME280;44529;47.464;19.014;2023-03-31T03:41:00;99797.44;;;9.96;99.33
58761;BME280;44529;47.464;19.014;2023-03-31T03:44:03;99789.34;;;9.96;98.66
58761;BME280;44529;47.464;19.014;2023-03-31T03:47:05;99787.91;;;9.90;99.60
58761;BME280;44529;47.464;19.014;2023-03-31T03:50:08;99788.41;;;9.84;100.00
58761;BME280;44529;47.464;19.014;2023-03-31T03:53:12;99781.09;;;9.93;98.99
58761;BME280;44529;47.464;19.014;2023-03-31T03:56:15;99779.19;;;9.93;99.11
58761;BME280;44529;47.464;19.014;2023-03-31T03:59:17;99781.72;;;9.81;99.94
58761;BME280;44529;47.464;19.014;2023-03-31T04:02:19;99789.19;;;9.84;99.56
58761;BME280;44529;47.464;19.014;2023-03-31T04:05:22;99789.03;;;9.81;99.65
58761;BME280;44529;47.464;19.014;2023-03-31T04:08:24;99785.69;;;9.75;100.00
58761;BME280;44529;47.464;19.014;2023-03-31T04:11:27;99779.34;;;9.71;100.00
58761;BME280;44529;47.464;19.014;2023-03-31T04:14:29;99778.06;;;9.68;100.00
58761;BME280;44529;47.464;19.014;2023-03-31T04:17:32;99779.44;;;9.40;100.00
58761;BME280;44529;47.464;19.014;2023-03-31T04:20:38;99774.78;;;9.14;100.00
58761;BME280;44529;47.464;19.014;2023-03-31T04:23:41;99780.31;;;9.01;100.00
58761;BME280;44529;47.464;19.014;2023-03-31T04:26:49;99779.47;;;8.91;100.00
58761;BME280;44529;47.464;19.014;2023-03-31T04:29:52;99773.44;;;8.86;100.00
58761;BME280;44529;47.464;19.014;2023-03-31T04:32:59;99786.75;;;8.82;100.00
58761;BME280;44529;47.464;19.014;2023-03-31T04:36:05;99786.56;;;8.79;100.00
58761;BME280;44529;47.464;19.014;2023-03-31T04:39:18;99783.84;;;8.70;100.00
58761;BME280;44529;47.464;19.014;2023-03-31T04:42:28;99779.06;;;8.67;100.00
58761;BME280;44529;47.464;19.014;2023-03-31T04:45:30;99782.47;;;8.50;100.00
58761;BME280;44529;47.464;19.014;2023-03-31T04:48:33;99778.59;;;8.43;100.00
58761;BME280;44529;47.464;19.014;2023-03-31T04:51:35;99788.91;;;8.40;100.00
58761;BME280;44529;47.464;19.014;2023-03-31T04:54:38;99785.09;;;8.41;100.00
58761;BME280;44529;47.464;19.014;2023-03-31T04:57:40;99777.44;;;8.35;100.00
58761;BME280;44529;47.464;19.014;2023-03-31T05:00:43;99770.53;;;8.43;100.00
58761;BME280;44529;47.464;19.014;2023-03-31T05:03:46;99775.78;;;8.48;100.00
58761;BME280;44529;47.464;19.014;2023-03-31T05:06:49;99771.50;;;8.47;100.00
58761;BME280;44529;47.464;19.014;2023-03-31T05:09:52;99767.34;;;8.40;100.00
58761;BME280;44529;47.464;19.014;2023-03-31T05:12:54;99768.47;;;8.39;100.00
58761;BME280;44529;47.464;19.014;2023-03-31T05:15:57;99757.06;;;8.43;100.00
58761;BME280;44529;47.464;19.014;2023-03-31T05:18:59;99750.56;;;8.44;100.00
58761;BME280;44529;47.464;19.014;2023-03-31T05:22:01;99755.94;;;8.44;100.00
58761;BME280;44529;47.464;19.014;2023-03-31T05:25:06;99761.97;;;8.40;100.00
58761;BME280;44529;47.464;19.014;2023-03-31T05:28:09;99758.63;;;8.44;100.00
58761;BME280;44529;47.464;19.014;2023-03-31T05:31:11;99755.34;;;8.47;100.00
58761;BME280;44529;47.464;19.014;2023-03-31T05:34:14;99757.28;;;8.55;100.00
58761;BME280;44529;47.464;19.014;2023-03-31T05:37:19;99757.78;;;8.57;100.00
58761;BME280;44529;47.464;19.014;2023-03-31T05:40:21;99753.41;;;8.70;100.00
58761;BME280;44529;47.464;19.014;2023-03-31T05:43:24;99751.84;;;8.77;100.00
58761;BME280;44529;47.464;19.014;2023-03-31T05:46:27;99751.25;;;8.89;100.00
58761;BME280;44529;47.464;19.014;2023-03-31T05:49:29;99748.25;;;8.99;100.00
58761;BME280;44529;47.464;19.014;2023-03-31T05:52:32;99745.28;;;9.09;100.00
58761;BME280;44529;47.464;19.014;2023-03-31T05:55:36;99747.06;;;9.22;100.00
58761;BME280;44529;47.464;19.014;2023-03-31T05:58:38;99741.84;;;9.35;100.00
58761;BME280;44529;47.464;19.014;2023-03-31T06:01:40;99746.12;;;9.44;100.00
58761;BME280;44529;47.464;19.014;2023-03-31T06:04:44;99741.22;;;9.55;100.00
58761;BME280;44529;47.464;19.014;2023-03-31T06:07:46;99746.62;;;9.64;100.00
58761;BME280;44529;47.464;19.014;2023-03-31T06:10:49;99739.97;;;9.70;100.00
58761;BME280;44529;47.464;19.014;2023-03-31T06:13:52;99736.94;;;9.80;100.00
58761;BME280;44529;47.464;19.014;2023-03-31T06:16:55;99737.56;;;9.94;100.00
58761;BME280;44529;47.464;19.014;2023-03-31T06:19:59;99739.47;;;10.02;100.00
58761;BME280;44529;47.464;19.014;2023-03-31T06:23:01;99734.53;;;10.13;100.00
58761;BME280;44529;47.464;19.014;2023-03-31T06:26:07;99725.78;;;10.25;100.00
58761;BME280;44529;47.464;19.014;2023-03-31T06:29:10;99739.09;;;10.30;100.00
58761;BME280;44529;47.464;19.014;2023-03-31T06:32:12;99727.00;;;10.36;100.00
58761;BME280;44529;47.464;19.014;2023-03-31T06:35:14;99730.03;;;10.43;100.00
58761;BME280;44529;47.464;19.014;2023-03-31T06:38:17;99733.03;;;10.50;100.00
58761;BME280;44529;47.464;19.014;2023-03-31T06:41:19;99726.78;;;10.58;100.00
58761;BME280;44529;47.464;19.014;2023-03-31T06:44:23;99727.53;;;10.68;99.59
58761;BME280;44529;47.464;19.014;2023-03-31T06:47:26;99724.16;;;10.79;99.24
58761;BME280;44529;47.464;19.014;2023-03-31T06:50:28;99723.66;;;10.86;99.04
58761;BME280;44529;47.464;19.014;2023-03-31T06:53:31;99719.00;;;10.95;97.36
58761;BME280;44529;47.464;19.014;2023-03-31T06:56:34;99715.12;;;11.05;97.17
58761;BME280;44529;47.464;19.014;2023-03-31T06:59:37;99720.00;;;11.11;97.20
58761;BME280;44529;47.464;19.014;2023-03-31T07:02:39;99725.06;;;11.22;97.29
58761;BME280;44529;47.464;19.014;2023-03-31T07:05:47;99734.03;;;11.34;95.92
58761;BME280;44529;47.464;19.014;2023-03-31T07:08:52;99733.78;;;11.48;94.02
58761;BME280;44529;47.464;19.014;2023-03-31T07:11:55;99739.88;;;11.66;92.63
58761;BME280;44529;47.464;19.014;2023-03-31T07:14:58;99737.28;;;11.70;92.79
58761;BME280;44529;47.464;19.014;2023-03-31T07:18:00;99733.38;;;11.79;91.17
58761;BME280;44529;47.464;19.014;2023-03-31T07:21:04;99729.25;;;11.82;91.19
58761;BME280;44529;47.464;19.014;2023-03-31T07:24:11;99728.50;;;11.93;91.21
58761;BME280;44529;47.464;19.014;2023-03-31T07:27:14;99724.31;;;11.96;87.59
58761;BME280;44529;47.464;19.014;2023-03-31T07:30:18;99720.53;;;12.09;85.98
58761;BME280;44529;47.464;19.014;2023-03-31T07:33:21;99711.81;;;12.04;87.18
58761;BME280;44529;47.464;19.014;2023-03-31T07:36:24;99711.81;;;12.04;87.89
58761;BME280;44529;47.464;19.014;2023-03-31T07:39:26;99715.59;;;12.11;88.08
58761;BME280;44529;47.464;19.014;2023-03-31T07:42:29;99705.47;;;12.45;87.68
58761;BME280;44529;47.464;19.014;2023-03-31T07:45:32;99701.19;;;12.68;88.02
58761;BME280;44529;47.464;19.014;2023-03-31T07:48:35;99696.91;;;12.92;84.82
58761;BME280;44529;47.464;19.014;2023-03-31T07:51:37;99686.69;;;13.38;83.68
58761;BME280;44529;47.464;19.014;2023-03-31T07:54:40;99687.75;;;13.61;83.66
58761;BME280;44529;47.464;19.014;2023-03-31T07:57:42;99693.03;;;13.70;82.14
58761;BME280;44529;47.464;19.014;2023-03-31T08:00:47;99693.09;;;13.86;81.28
58761;BME280;44529;47.464;19.014;2023-03-31T08:03:50;99695.53;;;14.34;80.01
58761;BME280;44529;47.464;19.014;2023-03-31T08:06:55;99690.72;;;14.91;76.23
58761;BME280;44529;47.464;19.014;2023-03-31T08:09:57;99690.28;;;15.24;73.09
58761;BME280;44529;47.464;19.014;2023-03-31T08:13:00;99683.44;;;15.50;74.08
58761;BME280;44529;47.464;19.014;2023-03-31T08:16:03;99673.34;;;15.69;72.70
58761;BME280;44529;47.464;19.014;2023-03-31T08:19:05;99669.97;;;15.76;72.80
58761;BME280;44529;47.464;19.014;2023-03-31T08:22:08;99668.31;;;15.91;70.94
58761;BME280;44529;47.464;19.014;2023-03-31T08:25:10;99661.06;;;16.44;68.88
58761;BME280;44529;47.464;19.014;2023-03-31T08:28:13;99659.91;;;17.25;66.78
58761;BME280;44529;47.464;19.014;2023-03-31T08:31:17;99656.03;;;17.90;61.46
58761;BME280;44529;47.464;19.014;2023-03-31T08:34:20;99646.53;;;18.17;62.01
58761;BME280;44529;47.464;19.014;2023-03-31T08:37:22;99645.53;;;17.95;61.37
58761;BME280;44529;47.464;19.014;2023-03-31T08:40:26;99635.59;;;18.17;60.55
58761;BME280;44529;47.464;19.014;2023-03-31T08:43:33;99633.03;;;18.38;60.40
58761;BME280;44529;47.464;19.014;2023-03-31T08:46:37;99633.56;;;18.55;58.81
58761;BME280;44529;47.464;19.014;2023-03-31T08:49:44;99620.13;;;18.90;58.51
58761;BME280;44529;47.464;19.014;2023-03-31T08:52:58;99624.31;;;18.74;60.32
58761;BME280;44529;47.464;19.014;2023-03-31T08:56:04;99622.16;;;19.04;57.88
58761;BME280;44529;47.464;19.014;2023-03-31T08:59:32;99606.25;;;19.35;56.58
58761;BME280;44529;47.464;19.014;2023-03-31T09:02:53;99597.28;;;19.48;57.50
58761;BME280;44529;47.464;19.014;2023-03-31T09:06:06;99596.63;;;19.98;56.75
58761;BME280;44529;47.464;19.014;2023-03-31T09:19:33;99570.19;;;19.26;57.64
58761;BME280;44529;47.464;19.014;2023-03-31T09:22:40;99572.59;;;19.45;58.12
58761;BME280;44529;47.464;19.014;2023-03-31T09:25:45;99574.78;;;19.00;60.74
58761;BME280;44529;47.464;19.014;2023-03-31T09:28:48;99571.41;;;18.66;61.21
58761;BME280;44529;47.464;19.014;2023-03-31T09:31:52;99563.84;;;19.07;56.80
58761;BME280;44529;47.464;19.014;2023-03-31T09:35:01;99557.94;;;19.05;56.92
58761;BME280;44529;47.464;19.014;2023-03-31T09:38:14;99559.50;;;18.37;58.27
58761;BME280;44529;47.464;19.014;2023-03-31T09:41:18;99556.19;;;18.13;57.66
58761;BME280;44529;47.464;19.014;2023-03-31T09:44:29;99545.56;;;18.60;56.91
58761;BME280;44529;47.464;19.014;2023-03-31T09:47:44;99537.50;;;18.81;60.05
58761;BME280;44529;47.464;19.014;2023-03-31T09:50:54;99537.06;;;18.69;58.13
58761;BME280;44529;47.464;19.014;2023-03-31T09:54:21;99531.25;;;18.84;57.84
58761;BME280;44529;47.464;19.014;2023-03-31T09:57:33;99530.66;;;18.50;57.71
58761;BME280;44529;47.464;19.014;2023-03-31T10:00:39;99528.69;;;18.54;57.76
58761;BME280;44529;47.464;19.014;2023-03-31T10:03:49;99529.44;;;18.48;58.50
58761;BME280;44529;47.464;19.014;2023-03-31T10:06:53;99517.19;;;18.24;57.44
58761;BME280;44529;47.464;19.014;2023-03-31T10:09:56;99516.84;;;17.81;58.84
58761;BME280;44529;47.464;19.014;2023-03-31T10:13:00;99506.69;;;17.78;61.95
58761;BME280;44529;47.464;19.014;2023-03-31T10:16:13;99501.94;;;17.75;61.98
58761;BME280;44529;47.464;19.014;2023-03-31T10:19:25;99488.53;;;18.03;62.26
58761;BME280;44529;47.464;19.014;2023-03-31T10:22:30;99483.69;;;18.45;61.08
58761;BME280;44529;47.464;19.014;2023-03-31T10:25:33;99479.38;;;18.47;58.92
58761;BME280;44529;47.464;19.014;2023-03-31T10:28:36;99477.88;;;18.60;59.96
58761;BME280;44529;47.464;19.014;2023-03-31T10:31:38;99481.34;;;18.43;54.29
58761;BME280;44529;47.464;19.014;2023-03-31T10:34:41;99463.41;;;18.56;55.16
58761;BME280;44529;47.464;19.014;2023-03-31T10:37:46;99469.47;;;18.21;54.48
58761;BME280;44529;47.464;19.014;2023-03-31T10:40:54;99464.16;;;17.84;55.54
58761;BME280;44529;47.464;19.014;2023-03-31T10:43:59;99461.06;;;17.93;58.13
58761;BME280;44529;47.464;19.014;2023-03-31T10:47:08;99448.28;;;17.59;61.89
58761;BME280;44529;47.464;19.014;2023-03-31T10:50:17;99450.75;;;17.27;64.53
58761;BME280;44529;47.464;19.014;2023-03-31T10:53:20;99449.06;;;17.16;66.31
58761;BME280;44529;47.464;19.014;2023-03-31T10:56:39;99445.72;;;17.33;65.12
58761;BME280;44529;47.464;19.014;2023-03-31T11:00:02;99436.87;;;17.47;62.76
58761;BME280;44529;47.464;19.014;2023-03-31T11:03:11;99437.00;;;17.65;63.35
58761;BME280;44529;47.464;19.014;2023-03-31T11:13:25;99423.78;;;18.32;60.49
58761;BME280;44529;47.464;19.014;2023-03-31T11:19:56;99421.81;;;18.26;57.17
58761;BME280;44529;47.464;19.014;2023-03-31T11:46:27;99337.00;;;17.60;61.41
58761;BME280;44529;47.464;19.014;2023-03-31T11:49:38;99324.50;;;17.59;62.49
58761;BME280;44529;47.464;19.014;2023-03-31T11:52:50;99322.16;;;17.61;61.66
58761;BME280;44529;47.464;19.014;2023-03-31T11:55:56;99324.16;;;17.68;61.14
58761;BME280;44529;47.464;19.014;2023-03-31T11:59:00;99323.91;;;17.94;59.06
58761;BME280;44529;47.464;19.014;2023-03-31T12:02:15;99313.47;;;18.21;60.17
58761;BME280;44529;47.464;19.014;2023-03-31T12:05:21;99306.84;;;18.26;60.36
58761;BME280;44529;47.464;19.014;2023-03-31T12:08:35;99293.97;;;18.23;60.39
58761;BME280;44529;47.464;19.014;2023-03-31T12:15:22;99294.78;;;18.48;60.90
58761;BME280;44529;47.464;19.014;2023-03-31T12:18:29;99282.72;;;18.67;61.19
58761;BME280;44529;47.464;19.014;2023-03-31T12:21:35;99281.12;;;18.55;59.72
58761;BME280;44529;47.464;19.014;2023-03-31T12:24:38;99277.28;;;18.88;58.54
58761;BME280;44529;47.464;19.014;2023-03-31T12:27:45;99284.69;;;18.74;57.87
58761;BME280;44529;47.464;19.014;2023-03-31T12:30:52;99272.56;;;18.92;56.34
58761;BME280;44529;47.464;19.014;2023-03-31T12:34:07;99273.75;;;19.09;57.04
58761;BME280;44529;47.464;19.014;2023-03-31T12:41:22;99257.69;;;19.26;57.95
58761;BME280;44529;47.464;19.014;2023-03-31T12:43:57;99256.13;;;19.10;57.35
58761;BME280;44529;47.464;19.014;2023-03-31T12:47:16;99258.47;;;19.05;56.99
58761;BME280;44529;47.464;19.014;2023-03-31T12:57:20;99233.44;;;18.92;58.32
58761;BME280;44529;47.464;19.014;2023-03-31T13:00:25;99217.78;;;19.14;57.37
58761;BME280;44529;47.464;19.014;2023-03-31T13:09:44;99225.19;;;18.46;59.66
58761;BME280;44529;47.464;19.014;2023-03-31T13:13:15;99216.56;;;18.47;59.96
58761;BME280;44529;47.464;19.014;2023-03-31T13:16:19;99201.31;;;18.46;60.89
58761;BME280;44529;47.464;19.014;2023-03-31T13:19:32;99194.69;;;18.54;60.85
58761;BME280;44529;47.464;19.014;2023-03-31T13:22:36;99185.31;;;18.77;58.00
58761;BME280;44529;47.464;19.014;2023-03-31T13:32:24;99164.50;;;19.26;53.45
58761;BME280;44529;47.464;19.014;2023-03-31T13:35:29;99151.97;;;19.25;51.75
58761;BME280;44529;47.464;19.014;2023-03-31T13:49:07;99104.34;;;18.61;53.85
58761;BME280;44529;47.464;19.014;2023-03-31T13:52:12;99095.38;;;18.36;53.58
58761;BME280;44529;47.464;19.014;2023-03-31T13:55:24;99103.97;;;18.20;54.05
58761;BME280;44529;47.464;19.014;2023-03-31T14:01:53;99116.81;;;17.95;54.84
58761;BME280;44529;47.464;19.014;2023-03-31T14:05:35;99107.84;;;17.87;54.91
58761;BME280;44529;47.464;19.014;2023-03-31T14:09:02;99104.72;;;17.92;54.59
58761;BME280;44529;47.464;19.014;2023-03-31T14:12:35;99085.56;;;17.92;54.99
58761;BME280;44529;47.464;19.014;2023-03-31T14:15:54;99082.84;;;17.85;54.21
58761;BME280;44529;47.464;19.014;2023-03-31T14:39:39;99018.75;;;18.36;51.27
58761;BME280;44529;47.464;19.014;2023-03-31T14:42:43;99020.28;;;18.44;50.94
58761;BME280;44529;47.464;19.014;2023-03-31T14:46:00;99017.94;;;18.50;51.30
58761;BME280;44529;47.464;19.014;2023-03-31T14:52:19;99011.28;;;18.51;51.81
58761;BME280;44529;47.464;19.014;2023-03-31T14:55:27;99001.53;;;18.43;52.45
58761;BME280;44529;47.464;19.014;2023-03-31T14:58:52;99005.44;;;18.38;53.42
58761;BME280;44529;47.464;19.014;2023-03-31T15:01:59;98996.44;;;18.34;54.12
58761;BME280;44529;47.464;19.014;2023-03-31T15:05:05;98998.81;;;18.18;54.27
58761;BME280;44529;47.464;19.014;2023-03-31T15:08:21;98997.66;;;18.04;55.48
58761;BME280;44529;47.464;19.014;2023-03-31T15:11:26;98998.44;;;17.83;55.68
58761;BME280;44529;47.464;19.014;2023-03-31T15:14:34;98999.59;;;17.75;56.13
58761;BME280;44529;47.464;19.014;2023-03-31T15:17:40;99004.31;;;17.85;54.81
58761;BME280;44529;47.464;19.014;2023-03-31T15:20:43;99008.97;;;17.81;53.37
58761;BME280;44529;47.464;19.014;2023-03-31T15:23:46;98993.75;;;17.87;51.29
58761;BME280;44529;47.464;19.014;2023-03-31T15:27:00;98993.38;;;17.78;50.76
58761;BME280;44529;47.464;19.014;2023-03-31T15:30:13;98999.94;;;17.49;51.89
58761;BME280;44529;47.464;19.014;2023-03-31T15:33:21;98994.81;;;17.29;53.50
58761;BME280;44529;47.464;19.014;2023-03-31T15:36:27;98988.09;;;16.98;54.84
58761;BME280;44529;47.464;19.014;2023-03-31T15:39:32;98964.25;;;16.85;55.65
58761;BME280;44529;47.464;19.014;2023-03-31T15:42:35;98959.91;;;16.73;55.89
58761;BME280;44529;47.464;19.014;2023-03-31T15:45:54;98957.97;;;16.70;57.23
58761;BME280;44529;47.464;19.014;2023-03-31T15:48:57;98952.44;;;16.59;57.25
58761;BME280;44529;47.464;19.014;2023-03-31T15:51:59;98960.56;;;16.45;57.49
58761;BME280;44529;47.464;19.014;2023-03-31T15:58:46;98945.69;;;16.32;58.24
58761;BME280;44529;47.464;19.014;2023-03-31T16:01:57;98938.25;;;16.25;57.88
58761;BME280;44529;47.464;19.014;2023-03-31T16:05:02;98934.66;;;16.14;57.42
58761;BME280;44529;47.464;19.014;2023-03-31T16:08:14;98936.13;;;16.01;57.80
58761;BME280;44529;47.464;19.014;2023-03-31T16:11:22;98949.81;;;16.08;57.46
58761;BME280;44529;47.464;19.014;2023-03-31T16:14:35;98947.09;;;16.08;57.88
58761;BME280;44529;47.464;19.014;2023-03-31T16:17:40;98955.66;;;16.06;57.99
58761;BME280;44529;47.464;19.014;2023-03-31T16:20:52;98931.75;;;15.89;58.46
58761;BME280;44529;47.464;19.014;2023-03-31T16:23:57;98927.00;;;15.75;58.43
58761;BME280;44529;47.464;19.014;2023-03-31T16:27:01;98936.63;;;15.62;59.35
58761;BME280;44529;47.464;19.014;2023-03-31T16:30:17;98939.28;;;15.58;59.16
58761;BME280;44529;47.464;19.014;2023-03-31T16:33:22;98950.91;;;15.52;60.19
58761;BME280;44529;47.464;19.014;2023-03-31T16:36:25;98950.88;;;15.48;60.51
58761;BME280;44529;47.464;19.014;2023-03-31T16:39:28;98961.41;;;15.50;60.30
58761;BME280;44529;47.464;19.014;2023-03-31T16:42:30;98957.66;;;15.24;60.80
58761;BME280;44529;47.464;19.014;2023-03-31T16:45:33;98982.22;;;15.28;60.98
58761;BME280;44529;47.464;19.014;2023-03-31T16:48:35;98974.84;;;15.28;61.31
58761;BME280;44529;47.464;19.014;2023-03-31T16:51:37;98989.56;;;15.24;61.26
58761;BME280;44529;47.464;19.014;2023-03-31T16:54:40;98985.59;;;15.14;61.84
58761;BME280;44529;47.464;19.014;2023-03-31T16:57:42;98976.19;;;15.08;62.18
58761;BME280;44529;47.464;19.014;2023-03-31T17:00:46;98972.63;;;15.04;62.52
58761;BME280;44529;47.464;19.014;2023-03-31T17:03:48;98968.09;;;15.15;61.85
58761;BME280;44529;47.464;19.014;2023-03-31T17:06:51;98975.72;;;15.02;62.61
58761;BME280;44529;47.464;19.014;2023-03-31T17:09:54;98972.25;;;15.05;62.40
58761;BME280;44529;47.464;19.014;2023-03-31T17:12:56;98966.25;;;14.93;63.29
58761;BME280;44529;47.464;19.014;2023-03-31T17:15:59;98976.12;;;14.71;63.77
58761;BME280;44529;47.464;19.014;2023-03-31T17:19:18;98975.03;;;14.75;63.41
58761;BME280;44529;47.464;19.014;2023-03-31T17:22:20;98960.19;;;14.69;64.58
58761;BME280;44529;47.464;19.014;2023-03-31T17:25:23;98952.28;;;14.60;64.59
58761;BME280;44529;47.464;19.014;2023-03-31T17:28:25;98942.28;;;14.42;64.44
58761;BME280;44529;47.464;19.014;2023-03-31T17:31:28;98935.25;;;14.37;64.90
58761;BME280;44529;47.464;19.014;2023-03-31T17:34:32;98934.09;;;14.38;65.34
58761;BME280;44529;47.464;19.014;2023-03-31T17:37:34;98939.56;;;14.42;65.21
58761;BME280;44529;47.464;19.014;2023-03-31T17:40:37;98940.59;;;14.30;65.71
58761;BME280;44529;47.464;19.014;2023-03-31T17:43:43;98931.53;;;14.22;65.92
58761;BME280;44529;47.464;19.014;2023-03-31T17:46:45;98932.19;;;14.12;66.68
58761;BME280;44529;47.464;19.014;2023-03-31T17:49:48;98908.88;;;14.11;67.24
58761;BME280;44529;47.464;19.014;2023-03-31T17:52:51;98910.37;;;14.08;66.99
58761;BME280;44529;47.464;19.014;2023-03-31T17:55:53;98917.88;;;14.15;67.08
58761;BME280;44529;47.464;19.014;2023-03-31T17:58:55;98929.09;;;14.14;67.13
58761;BME280;44529;47.464;19.014;2023-03-31T18:01:58;98943.00;;;14.08;67.50
58761;BME280;44529;47.464;19.014;2023-03-31T18:05:03;98937.56;;;14.08;67.31
58761;BME280;44529;47.464;19.014;2023-03-31T18:08:06;98948.41;;;14.05;67.79
58761;BME280;44529;47.464;19.014;2023-03-31T18:11:09;98952.81;;;13.90;68.66
58761;BME280;44529;47.464;19.014;2023-03-31T18:14:12;98955.22;;;13.92;69.43
58761;BME280;44529;47.464;19.014;2023-03-31T18:17:15;98949.00;;;13.91;69.62
58761;BME280;44529;47.464;19.014;2023-03-31T18:20:18;98959.69;;;13.80;71.23
58761;BME280;44529;47.464;19.014;2023-03-31T18:23:21;98966.09;;;13.69;73.44
58761;BME280;44529;47.464;19.014;2023-03-31T18:26:24;98972.56;;;13.61;73.75
58761;BME280;44529;47.464;19.014;2023-03-31T18:29:28;98971.44;;;13.65;74.35
58761;BME280;44529;47.464;19.014;2023-03-31T18:32:30;98960.06;;;13.56;75.54
58761;BME280;44529;47.464;19.014;2023-03-31T18:35:34;98953.00;;;13.51;75.77
58761;BME280;44529;47.464;19.014;2023-03-31T18:38:36;98953.34;;;13.50;75.34
58761;BME280;44529;47.464;19.014;2023-03-31T18:41:43;98964.50;;;13.45;75.93
58761;BME280;44529;47.464;19.014;2023-03-31T18:44:46;98969.12;;;13.41;75.82